createdAt,value
2023-02-06T00:01:56.363Z,3.30
2023-02-06T00:04:23.089Z,3.30
2023-02-06T00:06:49.854Z,3.50
2023-02-06T00:09:16.519Z,3.40
2023-02-06T00:11:43.267Z,3.40
2023-02-06T00:14:09.986Z,3.40
2023-02-06T00:16:36.683Z,3.40
2023-02-06T00:19:03.637Z,3.40
2023-02-06T00:21:30.355Z,3.50
2023-02-06T00:23:58.406Z,3.40
2023-02-06T00:26:25.127Z,3.40
2023-02-06T00:28:51.885Z,3.40
2023-02-06T00:31:18.592Z,3.40
2023-02-06T00:33:45.510Z,3.40
2023-02-06T00:36:12.247Z,3.40
2023-02-06T00:38:39.021Z,3.40
2023-02-06T00:41:05.937Z,3.40
2023-02-06T00:43:32.865Z,3.40
2023-02-06T00:45:59.511Z,3.40
2023-02-06T00:48:26.308Z,3.50
2023-02-06T00:50:53.509Z,3.50
2023-02-06T00:53:20.316Z,3.50
2023-02-06T00:55:46.973Z,3.40
2023-02-06T00:58:13.649Z,3.30
2023-02-06T01:00:40.325Z,3.30
2023-02-06T01:03:07.021Z,3.30
2023-02-06T01:05:34.010Z,3.20
2023-02-06T01:08:02.367Z,3.20
2023-02-06T01:10:30.759Z,3.20
2023-02-06T01:12:57.488Z,3.30
2023-02-06T01:15:24.203Z,3.20
2023-02-06T01:17:50.877Z,3.30
2023-02-06T01:20:17.631Z,3.30
2023-02-06T01:22:44.367Z,3.30
2023-02-06T01:25:11.028Z,3.30
2023-02-06T01:27:37.889Z,3.40
2023-02-06T01:30:05.829Z,3.50
2023-02-06T01:32:32.523Z,3.40
2023-02-06T01:34:59.185Z,3.40
2023-02-06T01:37:25.885Z,3.40
2023-02-06T01:39:52.569Z,3.40
2023-02-06T01:42:19.209Z,3.40
2023-02-06T01:44:45.968Z,3.40
2023-02-06T01:47:13.452Z,3.30
2023-02-06T01:49:46.166Z,3.30
2023-02-06T01:52:17.357Z,3.30
2023-02-06T01:54:45.061Z,3.30
2023-02-06T01:57:11.715Z,3.30
2023-02-06T01:59:38.422Z,3.30
2023-02-06T02:02:05.179Z,3.30
2023-02-06T02:04:32.516Z,3.30
2023-02-06T02:07:13.872Z,3.30
2023-02-06T02:09:40.568Z,3.40
2023-02-06T02:12:07.319Z,3.40
2023-02-06T02:14:34.578Z,3.50
2023-02-06T02:17:09.894Z,3.40
2023-02-06T02:19:57.623Z,3.40
2023-02-06T02:22:40.547Z,3.40
2023-02-06T02:25:25.412Z,3.40
2023-02-06T02:28:23.005Z,3.40
2023-02-06T02:30:58.612Z,3.40
2023-02-06T02:33:45.971Z,3.40
2023-02-06T02:36:43.423Z,3.40
2023-02-06T02:39:29.056Z,3.40
2023-02-06T02:42:05.845Z,3.40
2023-02-06T02:44:55.411Z,3.40
2023-02-06T02:47:25.520Z,3.50
2023-02-06T02:49:52.195Z,3.50
2023-02-06T02:52:19.292Z,3.50
2023-02-06T02:54:45.994Z,3.40
2023-02-06T02:57:15.277Z,3.40
2023-02-06T02:59:45.120Z,3.40
2023-02-06T03:02:18.041Z,3.50
2023-02-06T03:04:54.353Z,3.50
2023-02-06T03:07:30.103Z,3.50
2023-02-06T03:10:08.739Z,3.50
2023-02-06T03:12:39.890Z,3.40
2023-02-06T03:15:27.060Z,3.50
2023-02-06T03:18:04.211Z,3.50
2023-02-06T03:20:30.868Z,3.40
2023-02-06T03:22:57.683Z,3.40
2023-02-06T03:25:28.530Z,3.40
2023-02-06T03:27:55.230Z,3.40
2023-02-06T03:30:22.190Z,3.30
2023-02-06T03:32:50.297Z,3.30
2023-02-06T03:35:18.631Z,3.30
2023-02-06T03:37:45.486Z,3.30
2023-02-06T03:40:12.212Z,3.40
2023-02-06T03:42:40.863Z,3.40
2023-02-06T03:45:15.423Z,3.50
2023-02-06T03:47:42.082Z,3.40
2023-02-06T03:50:08.943Z,3.40
2023-02-06T03:52:40.535Z,3.40
2023-02-06T03:55:10.293Z,3.40
2023-02-06T03:57:37.019Z,3.40
2023-02-06T04:00:04.758Z,3.30
2023-02-06T04:02:31.603Z,3.30
2023-02-06T04:04:58.300Z,3.30
2023-02-06T04:07:29.405Z,3.20
2023-02-06T04:09:56.166Z,3.20
2023-02-06T04:12:22.994Z,3.30
2023-02-06T04:14:49.815Z,3.30
2023-02-06T04:17:27.324Z,3.30
2023-02-06T04:20:05.400Z,3.30
2023-02-06T04:22:32.129Z,3.30
2023-02-06T04:24:58.791Z,3.40
2023-02-06T04:27:25.487Z,3.40
2023-02-06T04:29:52.153Z,3.40
2023-02-06T04:32:18.795Z,3.40
2023-02-06T04:34:45.549Z,3.40
2023-02-06T04:37:15.166Z,3.40
2023-02-06T04:39:41.912Z,3.40
2023-02-06T04:42:08.744Z,3.40
2023-02-06T04:44:35.470Z,3.50
2023-02-06T04:47:03.224Z,3.40
2023-02-06T04:49:29.982Z,3.40
2023-02-06T04:51:56.617Z,3.40
2023-02-06T04:54:23.302Z,3.40
2023-02-06T04:56:50.034Z,3.40
2023-02-06T04:59:16.734Z,3.40
2023-02-06T05:01:43.444Z,3.40
2023-02-06T05:04:10.154Z,3.60
2023-02-06T05:06:36.863Z,3.50
2023-02-06T05:09:04.040Z,3.50
2023-02-06T05:11:30.772Z,3.50
2023-02-06T05:13:57.443Z,3.40
2023-02-06T05:16:24.152Z,3.40
2023-02-06T05:18:54.671Z,3.40
2023-02-06T05:21:21.556Z,3.40
2023-02-06T05:23:48.225Z,3.30
2023-02-06T05:26:14.898Z,3.30
2023-02-06T05:28:41.545Z,3.40
2023-02-06T05:31:08.496Z,3.40
2023-02-06T05:33:35.265Z,3.30
2023-02-06T05:36:06.355Z,3.20
2023-02-06T05:38:33.389Z,3.20
2023-02-06T05:41:00.228Z,3.30
2023-02-06T05:43:26.904Z,3.20
2023-02-06T05:45:53.584Z,3.10
2023-02-06T05:48:20.263Z,3.10
2023-02-06T05:50:49.202Z,3.20
2023-02-06T05:53:16.767Z,3.20
2023-02-06T05:55:43.430Z,3.20
2023-02-06T05:58:10.151Z,3.80
2023-02-06T06:00:36.810Z,3.10
2023-02-06T06:03:03.539Z,3.10
2023-02-06T06:05:30.201Z,3.10
2023-02-06T06:07:56.991Z,3.10
2023-02-06T06:10:23.751Z,3.10
2023-02-06T06:12:50.421Z,3.10
2023-02-06T06:15:17.185Z,3.10
2023-02-06T06:17:46.613Z,3.20
2023-02-06T06:20:13.486Z,3.20
2023-02-06T06:22:40.167Z,3.30
2023-02-06T06:25:07.070Z,3.20
2023-02-06T06:27:33.974Z,3.10
2023-02-06T06:30:00.799Z,3.10
2023-02-06T06:32:27.653Z,3.20
2023-02-06T06:34:54.305Z,3.10
2023-02-06T06:37:20.957Z,3.10
2023-02-06T06:39:47.696Z,3.10
2023-02-06T06:42:14.373Z,3.10
2023-02-06T06:44:41.032Z,3.10
2023-02-06T06:47:07.770Z,3.10
2023-02-06T06:49:34.485Z,3.10
2023-02-06T06:52:01.139Z,3.10
2023-02-06T06:54:27.874Z,3.00
2023-02-06T06:56:54.614Z,3.00
2023-02-06T06:59:21.277Z,3.10
2023-02-06T07:01:52.368Z,3.10
2023-02-06T07:04:20.916Z,3.10
2023-02-06T07:06:47.790Z,3.10
2023-02-06T07:09:14.525Z,3.10
2023-02-06T07:11:41.404Z,3.00
2023-02-06T07:14:08.903Z,3.00
2023-02-06T07:16:35.691Z,3.00
2023-02-06T07:19:02.466Z,3.00
2023-02-06T07:21:29.184Z,2.90
2023-02-06T07:23:56.010Z,2.90
2023-02-06T07:26:22.829Z,2.80
2023-02-06T07:28:49.835Z,2.80
2023-02-06T07:31:16.600Z,2.80
2023-02-06T07:33:43.950Z,2.90
2023-02-06T07:36:12.249Z,2.80
2023-02-06T07:38:39.099Z,2.80
2023-02-06T07:41:06.093Z,2.80
2023-02-06T07:43:32.888Z,2.70
2023-02-06T07:46:03.460Z,2.80
2023-02-06T07:48:30.408Z,2.70
2023-02-06T07:50:57.756Z,2.70
2023-02-06T07:53:24.440Z,2.60
2023-02-06T07:55:51.354Z,2.60
2023-02-06T07:58:18.240Z,2.60
2023-02-06T08:00:45.964Z,2.60
2023-02-06T08:03:12.726Z,2.70
2023-02-06T08:05:39.585Z,2.70
2023-02-06T08:08:07.070Z,2.70
2023-02-06T08:10:33.746Z,2.80
2023-02-06T08:13:00.461Z,2.70
2023-02-06T08:15:27.563Z,2.80
2023-02-06T08:17:54.321Z,2.70
2023-02-06T08:20:21.128Z,2.60
2023-02-06T08:22:47.816Z,2.60
2023-02-06T08:25:14.485Z,2.40
2023-02-06T08:27:41.313Z,2.30
2023-02-06T08:30:08.723Z,2.20
2023-02-06T08:32:35.714Z,2.30
2023-02-06T08:35:02.475Z,2.40
2023-02-06T08:37:29.123Z,2.40
2023-02-06T08:39:55.791Z,2.40
2023-02-06T08:42:22.494Z,2.50
2023-02-06T08:44:49.216Z,2.50
2023-02-06T08:47:16.523Z,2.60
2023-02-06T08:49:43.212Z,2.60
2023-02-06T08:52:10.003Z,2.70
2023-02-06T08:54:38.752Z,2.70
2023-02-06T08:57:06.675Z,2.80
2023-02-06T08:59:34.141Z,3.30
2023-02-06T09:02:01.047Z,2.80
2023-02-06T09:04:31.622Z,2.90
2023-02-06T09:06:58.284Z,3.00
2023-02-06T09:09:25.001Z,3.10
2023-02-06T09:11:52.009Z,3.20
2023-02-06T09:14:18.758Z,3.30
2023-02-06T09:16:45.500Z,3.70
2023-02-06T09:19:12.418Z,4.10
2023-02-06T09:21:39.228Z,4.50
2023-02-06T09:24:07.205Z,4.50
2023-02-06T09:26:53.519Z,4.50
2023-02-06T09:29:24.063Z,4.40
2023-02-06T09:31:50.752Z,4.40
2023-02-06T09:34:17.452Z,4.40
2023-02-06T09:36:44.228Z,4.40
2023-02-06T09:39:11.022Z,4.40
2023-02-06T09:41:47.252Z,4.40
2023-02-06T09:44:34.884Z,4.50
2023-02-06T09:47:22.358Z,4.60
2023-02-06T09:50:19.923Z,4.70
2023-02-06T09:53:08.298Z,4.80
2023-02-06T09:55:42.806Z,4.80
2023-02-06T09:58:48.846Z,4.80
2023-02-06T10:01:20.066Z,4.80
2023-02-06T10:04:12.935Z,4.90
2023-02-06T10:06:55.616Z,4.90
2023-02-06T10:09:54.102Z,5.00
2023-02-06T10:12:40.732Z,5.10
2023-02-06T10:15:07.673Z,5.20
2023-02-06T10:17:37.195Z,5.20
2023-02-06T10:20:14.140Z,5.20
2023-02-06T10:22:43.310Z,5.20
2023-02-06T10:25:21.263Z,5.30
2023-02-06T10:27:51.081Z,5.40
2023-02-06T10:30:19.925Z,5.40
2023-02-06T10:33:06.462Z,5.30
2023-02-06T10:35:47.704Z,5.60
2023-02-06T10:38:48.395Z,5.60
2023-02-06T10:41:15.181Z,5.70
2023-02-06T10:43:44.734Z,5.80
2023-02-06T10:46:31.412Z,5.90
2023-02-06T10:49:02.531Z,6.00
2023-02-06T10:51:35.159Z,6.10
2023-02-06T10:54:14.706Z,6.20
2023-02-06T10:56:44.428Z,6.40
2023-02-06T10:59:22.596Z,6.40
2023-02-06T11:01:50.543Z,6.50
2023-02-06T11:05:10.010Z,6.60
2023-02-06T11:07:42.157Z,6.80
2023-02-06T11:10:15.851Z,6.90
2023-02-06T11:12:44.523Z,7.00
2023-02-06T11:15:43.164Z,7.00
2023-02-06T11:18:14.315Z,7.10
2023-02-06T11:20:42.555Z,7.20
2023-02-06T11:23:26.469Z,7.20
2023-02-06T11:26:10.601Z,7.30
2023-02-06T11:28:39.960Z,7.40
2023-02-06T11:31:07.907Z,7.50
2023-02-06T11:33:37.392Z,7.50
2023-02-06T11:36:05.339Z,7.50
2023-02-06T11:38:32.701Z,7.60
2023-02-06T11:41:01.522Z,7.60
2023-02-06T11:43:30.944Z,7.60
2023-02-06T11:46:06.958Z,7.60
2023-02-06T11:48:43.696Z,7.70
2023-02-06T11:51:10.580Z,7.70
2023-02-06T11:53:37.705Z,7.70
2023-02-06T11:56:24.921Z,7.80
2023-02-06T11:59:16.572Z,7.80
2023-02-06T12:01:45.236Z,7.80
2023-02-06T12:04:36.417Z,7.80
2023-02-06T12:07:10.526Z,7.90
2023-02-06T12:09:37.107Z,8.00
2023-02-06T12:12:22.781Z,8.00
2023-02-06T12:14:56.243Z,8.00
2023-02-06T12:17:29.237Z,8.00
2023-02-06T12:20:00.229Z,7.90
2023-02-06T12:22:26.963Z,8.00
2023-02-06T12:24:55.383Z,8.00
2023-02-06T12:27:38.270Z,8.10
2023-02-06T12:30:27.873Z,8.10
2023-02-06T12:33:07.447Z,8.20
2023-02-06T12:35:49.584Z,8.20
2023-02-06T12:38:21.736Z,8.30
2023-02-06T12:41:24.515Z,8.30
2023-02-06T12:43:59.184Z,8.40
2023-02-06T12:46:26.874Z,8.30
2023-02-06T12:48:58.850Z,8.40
2023-02-06T12:51:29.595Z,8.30
2023-02-06T12:54:11.047Z,8.30
2023-02-06T12:56:44.181Z,8.40
2023-02-06T12:59:16.230Z,8.50
2023-02-06T13:01:49.275Z,8.50
2023-02-06T13:04:20.185Z,8.60
2023-02-06T13:06:52.222Z,8.70
2023-02-06T13:09:26.049Z,8.80
2023-02-06T13:11:54.108Z,8.80
2023-02-06T13:14:26.021Z,8.80
2023-02-06T13:17:34.258Z,8.70
2023-02-06T13:20:02.107Z,8.70
2023-02-06T13:22:44.951Z,8.80
2023-02-06T13:25:30.235Z,8.90
2023-02-06T13:28:06.039Z,9.00
2023-02-06T13:30:32.793Z,9.00
2023-02-06T13:33:17.740Z,9.00
2023-02-06T13:36:02.296Z,9.10
2023-02-06T13:38:37.512Z,9.10
2023-02-06T13:41:14.159Z,9.20
2023-02-06T13:43:56.294Z,9.10
2023-02-06T13:46:56.553Z,9.20
2023-02-06T13:49:29.626Z,9.30
2023-02-06T13:52:11.421Z,9.30
2023-02-06T13:54:50.693Z,9.40
2023-02-06T13:57:20.119Z,9.40
2023-02-06T14:00:08.201Z,9.40
2023-02-06T14:02:44.338Z,9.50
2023-02-06T14:05:15.335Z,9.50
2023-02-06T14:07:57.250Z,9.50
2023-02-06T14:10:28.102Z,9.50
2023-02-06T14:13:03.779Z,9.50
2023-02-06T14:15:38.634Z,9.50
2023-02-06T14:18:17.363Z,9.60
2023-02-06T14:20:44.298Z,9.50
2023-02-06T14:23:48.144Z,9.50
2023-02-06T14:26:43.038Z,9.40
2023-02-06T14:29:22.128Z,9.50
2023-02-06T14:31:58.452Z,9.40
2023-02-06T14:34:40.666Z,9.40
2023-02-06T14:37:20.559Z,9.40
2023-02-06T14:39:48.975Z,9.50
2023-02-06T14:42:18.896Z,9.60
2023-02-06T14:44:50.567Z,9.60
2023-02-06T14:47:20.337Z,9.60
2023-02-06T14:49:47.077Z,9.50
2023-02-06T14:52:22.158Z,9.50
2023-02-06T14:54:48.863Z,9.50
2023-02-06T14:57:29.055Z,9.40
2023-02-06T15:00:13.085Z,9.40
2023-02-06T15:02:39.983Z,9.40
2023-02-06T15:05:06.895Z,9.40
2023-02-06T15:07:35.521Z,9.50
2023-02-06T15:10:09.344Z,9.60
2023-02-06T15:12:36.356Z,9.80
2023-02-06T15:15:15.998Z,9.80
2023-02-06T15:17:42.816Z,10.00
2023-02-06T15:20:42.169Z,10.00
2023-02-06T15:23:28.116Z,10.10
2023-02-06T15:26:00.711Z,10.20
2023-02-06T15:28:33.845Z,10.30
2023-02-06T15:31:01.112Z,10.40
2023-02-06T15:33:32.418Z,10.70
2023-02-06T15:36:01.102Z,11.00
2023-02-06T15:38:29.265Z,11.50
2023-02-06T15:40:58.800Z,12.10
2023-02-06T15:43:25.902Z,12.70
2023-02-06T15:45:55.647Z,13.30
2023-02-06T15:48:27.278Z,13.80
2023-02-06T15:51:00.896Z,14.10
2023-02-06T15:53:38.531Z,14.20
2023-02-06T15:56:07.768Z,14.50
2023-02-06T15:58:34.598Z,14.60
2023-02-06T16:01:02.068Z,14.80
2023-02-06T16:03:29.567Z,14.80
2023-02-06T16:05:56.536Z,14.90
2023-02-06T16:08:26.567Z,15.10
2023-02-06T16:10:55.903Z,14.80
2023-02-06T16:13:25.830Z,14.20
2023-02-06T16:16:19.146Z,13.50
2023-02-06T16:18:46.592Z,12.80
2023-02-06T16:21:17.139Z,12.10
2023-02-06T16:23:48.395Z,11.70
2023-02-06T16:26:19.706Z,11.30
2023-02-06T16:28:55.338Z,11.00
2023-02-06T16:31:22.255Z,10.70
2023-02-06T16:33:50.632Z,10.50
2023-02-06T16:36:18.387Z,10.30
2023-02-06T16:38:51.178Z,10.20
2023-02-06T16:41:38.611Z,10.10
2023-02-06T16:44:11.284Z,9.90
2023-02-06T16:46:38.003Z,9.80
2023-02-06T16:49:34.326Z,9.70
2023-02-06T16:52:00.987Z,9.60
2023-02-06T16:54:29.199Z,9.50
2023-02-06T16:56:57.033Z,9.40
2023-02-06T16:59:24.057Z,9.30
2023-02-06T17:01:50.763Z,9.20
2023-02-06T17:04:17.563Z,9.10
2023-02-06T17:06:44.322Z,8.90
2023-02-06T17:09:12.319Z,8.80
2023-02-06T17:11:39.109Z,8.80
2023-02-06T17:14:06.078Z,8.70
2023-02-06T17:16:33.832Z,8.70
2023-02-06T17:19:00.633Z,8.60
2023-02-06T17:21:29.751Z,8.50
2023-02-06T17:23:56.480Z,8.40
2023-02-06T17:26:23.289Z,8.30
2023-02-06T17:28:50.578Z,8.10
2023-02-06T17:31:17.631Z,8.10
2023-02-06T17:33:44.450Z,8.00
2023-02-06T17:36:26.808Z,7.90
2023-02-06T17:38:53.548Z,7.80
2023-02-06T17:41:20.264Z,7.80
2023-02-06T17:43:48.134Z,7.70
2023-02-06T17:46:15.594Z,7.70
2023-02-06T17:48:44.488Z,7.60
2023-02-06T17:51:11.814Z,7.60
2023-02-06T17:53:39.577Z,7.50
2023-02-06T17:56:07.502Z,7.40
2023-02-06T17:58:34.713Z,7.30
2023-02-06T18:01:01.438Z,7.30
2023-02-06T18:03:28.124Z,7.30
2023-02-06T18:06:01.281Z,7.30
2023-02-06T18:08:28.247Z,7.20
2023-02-06T18:10:55.438Z,7.20
2023-02-06T18:13:24.348Z,7.10
2023-02-06T18:15:52.520Z,7.00
2023-02-06T18:18:19.266Z,6.90
2023-02-06T18:20:46.118Z,6.70
2023-02-06T18:23:12.998Z,6.60
2023-02-06T18:25:43.183Z,6.40
2023-02-06T18:28:13.758Z,6.30
2023-02-06T18:30:44.242Z,6.20
2023-02-06T18:33:14.045Z,6.20
2023-02-06T18:35:44.413Z,6.20
2023-02-06T18:38:12.332Z,6.30
2023-02-06T18:40:39.990Z,6.30
2023-02-06T18:43:06.863Z,6.20
2023-02-06T18:45:36.443Z,6.20
2023-02-06T18:48:08.105Z,6.10
2023-02-06T18:50:35.481Z,6.00
2023-02-06T18:53:02.609Z,6.00
2023-02-06T18:55:29.453Z,6.00
2023-02-06T18:57:56.282Z,6.00
2023-02-06T19:00:23.551Z,5.90
2023-02-06T19:02:50.405Z,5.90
2023-02-06T19:05:17.198Z,5.90
2023-02-06T19:07:47.655Z,5.90
2023-02-06T19:10:16.219Z,5.80
2023-02-06T19:12:43.118Z,5.70
2023-02-06T19:15:10.377Z,5.60
2023-02-06T19:17:37.164Z,5.60
2023-02-06T19:20:04.181Z,5.60
2023-02-06T19:22:33.174Z,5.50
2023-02-06T19:24:59.882Z,5.50
2023-02-06T19:27:26.645Z,5.50
2023-02-06T19:29:53.412Z,5.40
2023-02-06T19:32:20.086Z,5.40
2023-02-06T19:34:46.862Z,5.30
2023-02-06T19:37:13.651Z,5.30
2023-02-06T19:39:40.566Z,5.20
2023-02-06T19:42:11.342Z,5.10
2023-02-06T19:44:38.078Z,5.00
2023-02-06T19:47:05.048Z,4.90
2023-02-06T19:49:32.026Z,4.90
2023-02-06T19:51:59.043Z,4.80
2023-02-06T19:54:29.171Z,4.80
2023-02-06T19:56:57.004Z,4.80
2023-02-06T19:59:27.948Z,4.70
2023-02-06T20:02:03.274Z,4.70
2023-02-06T20:04:34.678Z,4.60
2023-02-06T20:07:01.643Z,4.50
2023-02-06T20:09:32.343Z,4.40
2023-02-06T20:11:59.217Z,4.30
2023-02-06T20:14:28.140Z,4.30
2023-02-06T20:16:55.559Z,4.30
2023-02-06T20:19:24.891Z,4.30
2023-02-06T20:21:53.443Z,4.30
2023-02-06T20:24:25.055Z,4.30
2023-02-06T20:26:56.031Z,4.20
2023-02-06T20:29:33.824Z,4.10
2023-02-06T20:32:00.870Z,4.10
2023-02-06T20:34:27.722Z,3.90
2023-02-06T20:36:54.851Z,3.80
2023-02-06T20:39:24.684Z,3.80
2023-02-06T20:41:51.524Z,3.80
2023-02-06T20:44:18.815Z,3.70
2023-02-06T20:46:46.220Z,3.70
2023-02-06T20:49:14.944Z,3.70
2023-02-06T20:51:41.664Z,3.70
2023-02-06T20:54:08.645Z,3.70
2023-02-06T20:56:35.344Z,3.70
2023-02-06T20:59:04.697Z,3.70
2023-02-06T21:01:31.901Z,3.70
2023-02-06T21:04:03.415Z,3.70
2023-02-06T21:06:30.572Z,3.70
2023-02-06T21:09:00.051Z,3.70
2023-02-06T21:11:31.540Z,3.70
2023-02-06T21:13:59.536Z,3.80
2023-02-06T21:16:26.983Z,3.80
2023-02-06T21:18:54.275Z,4.00
2023-02-06T21:21:25.478Z,3.90
2023-02-06T21:23:52.323Z,3.90
2023-02-06T21:26:19.027Z,4.00
2023-02-06T21:28:48.731Z,4.00
2023-02-06T21:31:23.936Z,4.00
2023-02-06T21:33:53.633Z,4.00
2023-02-06T21:36:21.158Z,4.00
2023-02-06T21:38:47.950Z,4.00
2023-02-06T21:41:17.178Z,4.00
2023-02-06T21:43:44.306Z,4.00
2023-02-06T21:46:13.369Z,4.00
2023-02-06T21:48:40.712Z,4.00
2023-02-06T21:51:12.333Z,4.00
2023-02-06T21:53:39.055Z,4.00
2023-02-06T21:56:07.161Z,3.90
2023-02-06T21:58:34.043Z,3.90
2023-02-06T22:01:03.489Z,3.90
2023-02-06T22:03:33.529Z,4.00
2023-02-06T22:06:09.615Z,4.00
2023-02-06T22:08:36.591Z,4.10
2023-02-06T22:11:11.689Z,4.10
2023-02-06T22:13:41.068Z,4.10
2023-02-06T22:16:08.476Z,4.10
2023-02-06T22:18:35.983Z,4.10
2023-02-06T22:21:07.073Z,4.10
2023-02-06T22:23:34.452Z,4.10
2023-02-06T22:26:01.272Z,4.00
2023-02-06T22:28:31.440Z,4.00
2023-02-06T22:31:05.496Z,4.00
2023-02-06T22:33:32.269Z,3.90
2023-02-06T22:35:59.010Z,3.90
2023-02-06T22:38:26.016Z,3.90
2023-02-06T22:41:00.649Z,3.90
2023-02-06T22:43:31.700Z,3.90
2023-02-06T22:45:58.383Z,3.80
2023-02-06T22:48:25.179Z,3.70
2023-02-06T22:50:53.388Z,3.60
2023-02-06T22:53:29.590Z,3.60
2023-02-06T22:56:19.889Z,3.50
2023-02-06T22:58:48.780Z,3.50
2023-02-06T23:01:16.731Z,3.40
2023-02-06T23:03:43.559Z,3.40
2023-02-06T23:06:12.321Z,3.40
2023-02-06T23:08:39.152Z,3.40
2023-02-06T23:11:06.231Z,3.40
2023-02-06T23:13:33.301Z,3.30
2023-02-06T23:16:00.193Z,3.30
2023-02-06T23:18:27.062Z,3.30
2023-02-06T23:21:08.029Z,3.20
2023-02-06T23:23:34.927Z,3.20
2023-02-06T23:26:01.667Z,3.20
2023-02-06T23:28:28.718Z,3.10
2023-02-06T23:30:55.561Z,3.10
2023-02-06T23:33:24.648Z,3.10
2023-02-06T23:35:51.359Z,3.00
2023-02-06T23:38:18.861Z,3.00
2023-02-06T23:40:45.693Z,3.00
2023-02-06T23:43:12.561Z,2.90
2023-02-06T23:45:40.163Z,2.90
2023-02-06T23:48:07.063Z,2.80
2023-02-06T23:50:33.780Z,2.80
2023-02-06T23:53:00.501Z,2.80
2023-02-06T23:55:28.389Z,2.70
2023-02-06T23:57:55.074Z,2.70
